sensor_id;sensor_type;location;lat;lon;timestamp;temperature;humidity
31133;DHT22;17779;50.942;4.026;2022-12-11T00:00:49;2.20;99.90
31133;DHT22;17779;50.942;4.026;2022-12-11T00:03:15;2.30;99.90
31133;DHT22;17779;50.942;4.026;2022-12-11T00:05:42;2.20;99.90
31133;DHT22;17779;50.942;4.026;2022-12-11T00:08:08;2.30;99.90
31133;DHT22;17779;50.942;4.026;2022-12-11T00:10:33;2.20;99.90
31133;DHT22;17779;50.942;4.026;2022-12-11T00:12:59;2.30;99.90
31133;DHT22;17779;50.942;4.026;2022-12-11T00:15:25;2.20;99.90
31133;DHT22;17779;50.942;4.026;2022-12-11T00:17:51;2.20;99.90
31133;DHT22;17779;50.942;4.026;2022-12-11T00:20:17;2.20;99.90
31133;DHT22;17779;50.942;4.026;2022-12-11T00:22:42;2.20;99.90
31133;DHT22;17779;50.942;4.026;2022-12-11T00:25:08;2.20;99.90
31133;DHT22;17779;50.942;4.026;2022-12-11T00:27:34;2.20;99.90
31133;DHT22;17779;50.942;4.026;2022-12-11T00:29:59;2.10;99.90
31133;DHT22;17779;50.942;4.026;2022-12-11T00:32:26;2.10;99.90
31133;DHT22;17779;50.942;4.026;2022-12-11T00:34:52;2.10;99.90
31133;DHT22;17779;50.942;4.026;2022-12-11T00:37:18;2.10;99.90
31133;DHT22;17779;50.942;4.026;2022-12-11T00:39:44;2.10;99.90
31133;DHT22;17779;50.942;4.026;2022-12-11T00:42:10;2.10;99.90
31133;DHT22;17779;50.942;4.026;2022-12-11T00:44:36;2.10;99.90
31133;DHT22;17779;50.942;4.026;2022-12-11T00:47:02;2.10;99.90
31133;DHT22;17779;50.942;4.026;2022-12-11T00:49:28;2.20;99.90
31133;DHT22;17779;50.942;4.026;2022-12-11T00:51:53;2.30;99.90
31133;DHT22;17779;50.942;4.026;2022-12-11T00:54:19;2.20;99.90
31133;DHT22;17779;50.942;4.026;2022-12-11T00:56:45;2.30;99.90
31133;DHT22;17779;50.942;4.026;2022-12-11T00:59:10;2.30;99.90
31133;DHT22;17779;50.942;4.026;2022-12-11T01:01:36;2.30;99.90
31133;DHT22;17779;50.942;4.026;2022-12-11T01:04:02;2.30;99.90
31133;DHT22;17779;50.942;4.026;2022-12-11T01:06:28;2.30;99.90
31133;DHT22;17779;50.942;4.026;2022-12-11T01:08:53;2.30;99.90
31133;DHT22;17779;50.942;4.026;2022-12-11T01:11:38;2.30;99.90
31133;DHT22;17779;50.942;4.026;2022-12-11T01:14:04;2.30;99.90
31133;DHT22;17779;50.942;4.026;2022-12-11T01:16:29;2.40;99.90
31133;DHT22;17779;50.942;4.026;2022-12-11T01:18:56;2.40;99.90
31133;DHT22;17779;50.942;4.026;2022-12-11T01:21:22;2.40;99.90
31133;DHT22;17779;50.942;4.026;2022-12-11T01:23:48;2.60;99.90
31133;DHT22;17779;50.942;4.026;2022-12-11T01:26:14;2.60;99.90
31133;DHT22;17779;50.942;4.026;2022-12-11T01:28:40;2.60;99.90
31133;DHT22;17779;50.942;4.026;2022-12-11T01:31:07;2.40;99.90
31133;DHT22;17779;50.942;4.026;2022-12-11T01:33:33;2.30;99.90
31133;DHT22;17779;50.942;4.026;2022-12-11T01:35:59;2.20;99.90
31133;DHT22;17779;50.942;4.026;2022-12-11T01:38:24;2.20;99.90
31133;DHT22;17779;50.942;4.026;2022-12-11T01:40:50;2.30;99.90
31133;DHT22;17779;50.942;4.026;2022-12-11T01:43:16;2.20;99.90
31133;DHT22;17779;50.942;4.026;2022-12-11T01:45:44;2.20;99.90
31133;DHT22;17779;50.942;4.026;2022-12-11T01:48:15;2.20;99.90
31133;DHT22;17779;50.942;4.026;2022-12-11T01:50:43;2.20;99.90
31133;DHT22;17779;50.942;4.026;2022-12-11T01:53:11;2.20;99.90
31133;DHT22;17779;50.942;4.026;2022-12-11T01:55:38;2.20;99.90
31133;DHT22;17779;50.942;4.026;2022-12-11T01:58:04;2.20;99.90
31133;DHT22;17779;50.942;4.026;2022-12-11T02:00:30;2.20;99.90
31133;DHT22;17779;50.942;4.026;2022-12-11T02:02:56;2.30;99.90
31133;DHT22;17779;50.942;4.026;2022-12-11T02:05:22;2.30;99.90
31133;DHT22;17779;50.942;4.026;2022-12-11T02:07:51;2.30;99.90
31133;DHT22;17779;50.942;4.026;2022-12-11T02:10:17;2.30;99.90
31133;DHT22;17779;50.942;4.026;2022-12-11T02:15:32;2.30;99.90
31133;DHT22;17779;50.942;4.026;2022-12-11T02:18:10;2.30;99.90
31133;DHT22;17779;50.942;4.026;2022-12-11T02:20:57;2.20;99.90
31133;DHT22;17779;50.942;4.026;2022-12-11T02:23:32;2.20;99.90
31133;DHT22;17779;50.942;4.026;2022-12-11T02:28:46;2.30;99.90
31133;DHT22;17779;50.942;4.026;2022-12-11T02:31:28;2.50;99.90
31133;DHT22;17779;50.942;4.026;2022-12-11T02:34:41;2.50;99.90
31133;DHT22;17779;50.942;4.026;2022-12-11T02:36:51;2.40;99.90
31133;DHT22;17779;50.942;4.026;2022-12-11T02:39:17;2.50;99.90
31133;DHT22;17779;50.942;4.026;2022-12-11T02:41:46;2.40;99.90
31133;DHT22;17779;50.942;4.026;2022-12-11T02:44:13;2.30;99.90
31133;DHT22;17779;50.942;4.026;2022-12-11T02:46:39;2.20;99.90
31133;DHT22;17779;50.942;4.026;2022-12-11T02:49:05;2.30;99.90
31133;DHT22;17779;50.942;4.026;2022-12-11T02:51:32;2.30;99.90
31133;DHT22;17779;50.942;4.026;2022-12-11T02:53:58;2.30;99.90
31133;DHT22;17779;50.942;4.026;2022-12-11T02:56:29;2.40;99.90
31133;DHT22;17779;50.942;4.026;2022-12-11T02:58:59;2.30;99.90
31133;DHT22;17779;50.942;4.026;2022-12-11T03:01:25;2.30;99.90
31133;DHT22;17779;50.942;4.026;2022-12-11T03:03:52;2.20;99.90
31133;DHT22;17779;50.942;4.026;2022-12-11T03:06:18;2.30;99.90
31133;DHT22;17779;50.942;4.026;2022-12-11T03:08:46;2.30;99.90
31133;DHT22;17779;50.942;4.026;2022-12-11T03:11:12;2.30;99.90
31133;DHT22;17779;50.942;4.026;2022-12-11T03:13:38;2.30;99.90
31133;DHT22;17779;50.942;4.026;2022-12-11T03:16:11;2.20;99.90
31133;DHT22;17779;50.942;4.026;2022-12-11T03:18:40;2.20;99.90
31133;DHT22;17779;50.942;4.026;2022-12-11T03:21:22;2.10;99.90
31133;DHT22;17779;50.942;4.026;2022-12-11T03:24:08;2.30;99.90
31133;DHT22;17779;50.942;4.026;2022-12-11T03:26:38;2.40;99.90
31133;DHT22;17779;50.942;4.026;2022-12-11T03:29:09;2.30;99.90
31133;DHT22;17779;50.942;4.026;2022-12-11T03:31:42;2.30;99.90
31133;DHT22;17779;50.942;4.026;2022-12-11T03:34:11;2.40;99.90
31133;DHT22;17779;50.942;4.026;2022-12-11T03:36:38;2.20;99.90
31133;DHT22;17779;50.942;4.026;2022-12-11T03:39:38;2.20;99.90
31133;DHT22;17779;50.942;4.026;2022-12-11T03:41:56;2.20;99.90
31133;DHT22;17779;50.942;4.026;2022-12-11T03:44:24;2.30;99.90
31133;DHT22;17779;50.942;4.026;2022-12-11T03:46:51;2.20;99.90
31133;DHT22;17779;50.942;4.026;2022-12-11T03:49:21;2.20;99.90
31133;DHT22;17779;50.942;4.026;2022-12-11T03:51:49;2.30;99.90
31133;DHT22;17779;50.942;4.026;2022-12-11T03:54:15;2.20;99.90
31133;DHT22;17779;50.942;4.026;2022-12-11T03:56:42;2.10;99.90
31133;DHT22;17779;50.942;4.026;2022-12-11T03:59:08;2.20;99.90
31133;DHT22;17779;50.942;4.026;2022-12-11T04:01:34;2.40;99.90
31133;DHT22;17779;50.942;4.026;2022-12-11T04:04:00;2.30;99.90
31133;DHT22;17779;50.942;4.026;2022-12-11T04:06:25;2.40;99.90
31133;DHT22;17779;50.942;4.026;2022-12-11T04:08:51;2.40;99.90
31133;DHT22;17779;50.942;4.026;2022-12-11T04:11:17;2.30;99.90
31133;DHT22;17779;50.942;4.026;2022-12-11T04:14:11;2.30;99.90
31133;DHT22;17779;50.942;4.026;2022-12-11T04:16:56;2.40;99.90
31133;DHT22;17779;50.942;4.026;2022-12-11T04:19:22;2.40;99.90
31133;DHT22;17779;50.942;4.026;2022-12-11T04:22:06;2.40;99.90
31133;DHT22;17779;50.942;4.026;2022-12-11T04:24:50;2.30;99.90
31133;DHT22;17779;50.942;4.026;2022-12-11T04:27:16;2.40;99.90
31133;DHT22;17779;50.942;4.026;2022-12-11T04:30:06;2.30;99.90
31133;DHT22;17779;50.942;4.026;2022-12-11T04:32:32;2.30;99.90
31133;DHT22;17779;50.942;4.026;2022-12-11T04:34:58;2.30;99.90
31133;DHT22;17779;50.942;4.026;2022-12-11T04:37:24;2.30;99.90
31133;DHT22;17779;50.942;4.026;2022-12-11T04:39:51;2.40;99.90
31133;DHT22;17779;50.942;4.026;2022-12-11T04:42:17;2.20;99.90
31133;DHT22;17779;50.942;4.026;2022-12-11T04:44:42;2.20;99.90
31133;DHT22;17779;50.942;4.026;2022-12-11T04:47:08;2.30;99.90
31133;DHT22;17779;50.942;4.026;2022-12-11T04:49:34;2.30;99.90
31133;DHT22;17779;50.942;4.026;2022-12-11T04:51:59;2.40;99.90
31133;DHT22;17779;50.942;4.026;2022-12-11T04:54:27;2.40;99.90
31133;DHT22;17779;50.942;4.026;2022-12-11T04:56:53;2.30;99.90
31133;DHT22;17779;50.942;4.026;2022-12-11T04:59:18;2.30;99.90
31133;DHT22;17779;50.942;4.026;2022-12-11T05:01:44;2.30;99.90
31133;DHT22;17779;50.942;4.026;2022-12-11T05:04:10;2.30;99.90
31133;DHT22;17779;50.942;4.026;2022-12-11T05:06:35;2.30;99.90
31133;DHT22;17779;50.942;4.026;2022-12-11T05:09:01;2.50;99.90
31133;DHT22;17779;50.942;4.026;2022-12-11T05:11:27;2.50;99.90
31133;DHT22;17779;50.942;4.026;2022-12-11T05:13:53;2.50;99.90
31133;DHT22;17779;50.942;4.026;2022-12-11T05:16:18;2.60;99.90
31133;DHT22;17779;50.942;4.026;2022-12-11T05:18:44;2.50;99.90
31133;DHT22;17779;50.942;4.026;2022-12-11T05:21:13;2.40;99.90
31133;DHT22;17779;50.942;4.026;2022-12-11T05:23:39;2.40;99.90
31133;DHT22;17779;50.942;4.026;2022-12-11T05:26:09;2.50;99.90
31133;DHT22;17779;50.942;4.026;2022-12-11T05:28:36;2.40;99.90
31133;DHT22;17779;50.942;4.026;2022-12-11T05:31:03;2.50;99.90
31133;DHT22;17779;50.942;4.026;2022-12-11T05:33:29;2.60;99.90
31133;DHT22;17779;50.942;4.026;2022-12-11T05:35:55;2.50;99.90
31133;DHT22;17779;50.942;4.026;2022-12-11T05:38:21;2.40;99.90
31133;DHT22;17779;50.942;4.026;2022-12-11T05:40:54;2.30;99.90
31133;DHT22;17779;50.942;4.026;2022-12-11T05:43:20;2.40;99.90
31133;DHT22;17779;50.942;4.026;2022-12-11T05:45:46;2.30;99.90
31133;DHT22;17779;50.942;4.026;2022-12-11T05:48:11;2.30;99.90
31133;DHT22;17779;50.942;4.026;2022-12-11T05:50:37;2.20;99.90
31133;DHT22;17779;50.942;4.026;2022-12-11T05:53:05;2.30;99.90
31133;DHT22;17779;50.942;4.026;2022-12-11T05:55:34;2.30;99.90
31133;DHT22;17779;50.942;4.026;2022-12-11T05:58:00;2.30;99.90
31133;DHT22;17779;50.942;4.026;2022-12-11T06:00:29;2.40;99.90
31133;DHT22;17779;50.942;4.026;2022-12-11T06:02:58;2.30;99.90
31133;DHT22;17779;50.942;4.026;2022-12-11T06:05:25;2.30;99.90
31133;DHT22;17779;50.942;4.026;2022-12-11T06:07:50;2.20;99.90
31133;DHT22;17779;50.942;4.026;2022-12-11T06:10:16;2.40;99.90
31133;DHT22;17779;50.942;4.026;2022-12-11T06:12:42;2.50;99.90
31133;DHT22;17779;50.942;4.026;2022-12-11T06:15:07;2.20;99.90
31133;DHT22;17779;50.942;4.026;2022-12-11T06:17:33;2.20;99.90
31133;DHT22;17779;50.942;4.026;2022-12-11T06:19:59;2.30;99.90
31133;DHT22;17779;50.942;4.026;2022-12-11T06:22:25;2.30;99.90
31133;DHT22;17779;50.942;4.026;2022-12-11T06:24:51;2.30;99.90
31133;DHT22;17779;50.942;4.026;2022-12-11T06:27:16;2.30;99.90
31133;DHT22;17779;50.942;4.026;2022-12-11T06:29:43;2.30;99.90
31133;DHT22;17779;50.942;4.026;2022-12-11T06:32:10;2.30;99.90
31133;DHT22;17779;50.942;4.026;2022-12-11T06:34:36;2.50;99.90
31133;DHT22;17779;50.942;4.026;2022-12-11T06:37:02;2.30;99.90
31133;DHT22;17779;50.942;4.026;2022-12-11T06:39:28;2.20;99.90
31133;DHT22;17779;50.942;4.026;2022-12-11T06:41:53;2.20;99.90
31133;DHT22;17779;50.942;4.026;2022-12-11T06:44:19;2.30;99.90
31133;DHT22;17779;50.942;4.026;2022-12-11T06:46:45;2.30;99.90
31133;DHT22;17779;50.942;4.026;2022-12-11T06:49:10;2.40;99.90
31133;DHT22;17779;50.942;4.026;2022-12-11T06:51:36;2.40;99.90
31133;DHT22;17779;50.942;4.026;2022-12-11T06:54:02;2.40;99.90
31133;DHT22;17779;50.942;4.026;2022-12-11T06:56:27;2.30;99.90
31133;DHT22;17779;50.942;4.026;2022-12-11T06:58:53;2.30;99.90
31133;DHT22;17779;50.942;4.026;2022-12-11T07:01:22;2.20;99.90
31133;DHT22;17779;50.942;4.026;2022-12-11T07:03:48;2.20;99.90
31133;DHT22;17779;50.942;4.026;2022-12-11T07:06:14;2.10;99.90
31133;DHT22;17779;50.942;4.026;2022-12-11T07:08:40;2.00;99.90
31133;DHT22;17779;50.942;4.026;2022-12-11T07:11:07;2.00;99.90
31133;DHT22;17779;50.942;4.026;2022-12-11T07:13:33;2.00;99.90
31133;DHT22;17779;50.942;4.026;2022-12-11T07:16:00;1.90;99.90
31133;DHT22;17779;50.942;4.026;2022-12-11T07:18:26;1.90;99.90
31133;DHT22;17779;50.942;4.026;2022-12-11T07:20:52;1.90;99.90
31133;DHT22;17779;50.942;4.026;2022-12-11T07:23:18;1.90;99.90
31133;DHT22;17779;50.942;4.026;2022-12-11T07:25:44;1.90;99.90
31133;DHT22;17779;50.942;4.026;2022-12-11T07:28:10;1.80;99.90
31133;DHT22;17779;50.942;4.026;2022-12-11T07:30:39;1.80;99.90
31133;DHT22;17779;50.942;4.026;2022-12-11T07:33:05;1.90;99.90
31133;DHT22;17779;50.942;4.026;2022-12-11T07:35:32;1.90;99.90
31133;DHT22;17779;50.942;4.026;2022-12-11T07:37:58;1.80;99.90
31133;DHT22;17779;50.942;4.026;2022-12-11T07:40:24;1.80;99.90
31133;DHT22;17779;50.942;4.026;2022-12-11T07:42:49;1.90;99.90
31133;DHT22;17779;50.942;4.026;2022-12-11T07:45:15;1.90;99.90
31133;DHT22;17779;50.942;4.026;2022-12-11T07:47:41;1.90;99.90
31133;DHT22;17779;50.942;4.026;2022-12-11T07:50:07;2.00;99.90
31133;DHT22;17779;50.942;4.026;2022-12-11T07:52:33;2.10;99.90
31133;DHT22;17779;50.942;4.026;2022-12-11T07:54:59;2.10;99.90
31133;DHT22;17779;50.942;4.026;2022-12-11T07:57:24;2.00;99.90
31133;DHT22;17779;50.942;4.026;2022-12-11T07:59:50;2.00;99.90
31133;DHT22;17779;50.942;4.026;2022-12-11T08:02:16;1.80;99.90
31133;DHT22;17779;50.942;4.026;2022-12-11T08:04:42;1.80;99.90
31133;DHT22;17779;50.942;4.026;2022-12-11T08:07:07;1.70;99.90
31133;DHT22;17779;50.942;4.026;2022-12-11T08:09:33;1.80;99.90
31133;DHT22;17779;50.942;4.026;2022-12-11T08:11:59;1.90;99.90
31133;DHT22;17779;50.942;4.026;2022-12-11T08:14:25;1.90;99.90
31133;DHT22;17779;50.942;4.026;2022-12-11T08:16:50;1.80;99.90
31133;DHT22;17779;50.942;4.026;2022-12-11T08:19:16;2.00;99.90
31133;DHT22;17779;50.942;4.026;2022-12-11T08:21:42;1.90;99.90
31133;DHT22;17779;50.942;4.026;2022-12-11T08:24:08;1.90;99.90
31133;DHT22;17779;50.942;4.026;2022-12-11T08:26:34;2.10;99.90
31133;DHT22;17779;50.942;4.026;2022-12-11T08:29:00;2.40;99.90
31133;DHT22;17779;50.942;4.026;2022-12-11T08:31:26;2.40;99.90
31133;DHT22;17779;50.942;4.026;2022-12-11T08:33:53;2.30;99.90
31133;DHT22;17779;50.942;4.026;2022-12-11T08:36:20;2.30;99.90
31133;DHT22;17779;50.942;4.026;2022-12-11T08:38:46;2.30;99.90
31133;DHT22;17779;50.942;4.026;2022-12-11T08:41:16;2.20;99.90
31133;DHT22;17779;50.942;4.026;2022-12-11T08:43:42;2.10;99.90
31133;DHT22;17779;50.942;4.026;2022-12-11T08:46:08;2.20;99.90
31133;DHT22;17779;50.942;4.026;2022-12-11T08:48:35;2.20;99.90
31133;DHT22;17779;50.942;4.026;2022-12-11T08:51:01;2.20;99.90
31133;DHT22;17779;50.942;4.026;2022-12-11T08:53:28;2.20;99.90
31133;DHT22;17779;50.942;4.026;2022-12-11T08:55:59;2.30;99.90
31133;DHT22;17779;50.942;4.026;2022-12-11T08:58:25;2.40;99.90
31133;DHT22;17779;50.942;4.026;2022-12-11T09:00:51;2.30;99.90
31133;DHT22;17779;50.942;4.026;2022-12-11T09:03:16;2.30;99.90
31133;DHT22;17779;50.942;4.026;2022-12-11T09:05:42;2.40;99.90
31133;DHT22;17779;50.942;4.026;2022-12-11T09:08:07;2.30;99.90
31133;DHT22;17779;50.942;4.026;2022-12-11T09:10:33;2.20;99.90
31133;DHT22;17779;50.942;4.026;2022-12-11T09:12:59;2.30;99.90
31133;DHT22;17779;50.942;4.026;2022-12-11T09:15:25;2.20;99.90
31133;DHT22;17779;50.942;4.026;2022-12-11T09:17:50;2.20;99.90
31133;DHT22;17779;50.942;4.026;2022-12-11T09:20:16;2.20;99.90
31133;DHT22;17779;50.942;4.026;2022-12-11T09:22:42;2.20;99.90
31133;DHT22;17779;50.942;4.026;2022-12-11T09:25:08;2.30;99.90
31133;DHT22;17779;50.942;4.026;2022-12-11T09:27:33;2.10;99.90
31133;DHT22;17779;50.942;4.026;2022-12-11T09:29:59;2.20;99.90
31133;DHT22;17779;50.942;4.026;2022-12-11T09:32:25;2.30;99.90
31133;DHT22;17779;50.942;4.026;2022-12-11T09:34:51;2.40;99.90
31133;DHT22;17779;50.942;4.026;2022-12-11T09:37:17;2.40;99.90
31133;DHT22;17779;50.942;4.026;2022-12-11T09:39:42;2.30;99.90
31133;DHT22;17779;50.942;4.026;2022-12-11T09:42:18;2.20;99.90
31133;DHT22;17779;50.942;4.026;2022-12-11T09:44:47;2.30;99.90
31133;DHT22;17779;50.942;4.026;2022-12-11T09:49:40;2.30;99.90
31133;DHT22;17779;50.942;4.026;2022-12-11T09:52:15;2.40;99.90
31133;DHT22;17779;50.942;4.026;2022-12-11T09:54:51;2.40;99.90
31133;DHT22;17779;50.942;4.026;2022-12-11T09:57:30;2.40;99.90
31133;DHT22;17779;50.942;4.026;2022-12-11T10:05:16;2.20;99.90
31133;DHT22;17779;50.942;4.026;2022-12-11T10:07:50;2.20;99.90
31133;DHT22;17779;50.942;4.026;2022-12-11T10:10:38;2.20;99.90
31133;DHT22;17779;50.942;4.026;2022-12-11T10:13:08;2.20;99.90
31133;DHT22;17779;50.942;4.026;2022-12-11T10:15:50;2.20;99.90
31133;DHT22;17779;50.942;4.026;2022-12-11T10:18:18;2.10;99.90
31133;DHT22;17779;50.942;4.026;2022-12-11T10:20:47;2.20;99.90
31133;DHT22;17779;50.942;4.026;2022-12-11T10:23:16;2.30;99.90
31133;DHT22;17779;50.942;4.026;2022-12-11T10:25:50;2.30;99.90
31133;DHT22;17779;50.942;4.026;2022-12-11T10:28:18;2.30;99.90
31133;DHT22;17779;50.942;4.026;2022-12-11T10:33:33;2.40;99.90
31133;DHT22;17779;50.942;4.026;2022-12-11T10:36:06;2.60;99.90
31133;DHT22;17779;50.942;4.026;2022-12-11T10:38:33;2.80;99.90
31133;DHT22;17779;50.942;4.026;2022-12-11T10:41:05;2.70;99.90
31133;DHT22;17779;50.942;4.026;2022-12-11T10:43:42;2.70;99.90
31133;DHT22;17779;50.942;4.026;2022-12-11T10:46:15;2.60;99.90
31133;DHT22;17779;50.942;4.026;2022-12-11T10:48:45;2.70;99.90
31133;DHT22;17779;50.942;4.026;2022-12-11T10:51:11;2.70;99.90
31133;DHT22;17779;50.942;4.026;2022-12-11T10:53:36;2.60;99.90
31133;DHT22;17779;50.942;4.026;2022-12-11T10:56:04;2.70;99.90
31133;DHT22;17779;50.942;4.026;2022-12-11T10:58:31;2.70;99.90
31133;DHT22;17779;50.942;4.026;2022-12-11T11:01:02;2.60;99.90
31133;DHT22;17779;50.942;4.026;2022-12-11T11:03:30;2.80;99.90
31133;DHT22;17779;50.942;4.026;2022-12-11T11:08:28;2.80;99.90
31133;DHT22;17779;50.942;4.026;2022-12-11T11:11:01;2.90;99.90
31133;DHT22;17779;50.942;4.026;2022-12-11T11:13:28;2.80;99.90
31133;DHT22;17779;50.942;4.026;2022-12-11T11:15:58;2.70;99.90
31133;DHT22;17779;50.942;4.026;2022-12-11T11:18:25;2.80;99.90
31133;DHT22;17779;50.942;4.026;2022-12-11T11:20:51;2.90;99.90
31133;DHT22;17779;50.942;4.026;2022-12-11T11:23:18;2.90;99.90
31133;DHT22;17779;50.942;4.026;2022-12-11T11:25:53;3.20;99.90
31133;DHT22;17779;50.942;4.026;2022-12-11T11:28:20;3.10;99.90
31133;DHT22;17779;50.942;4.026;2022-12-11T11:30:54;3.10;99.90
31133;DHT22;17779;50.942;4.026;2022-12-11T11:33:21;3.00;99.90
31133;DHT22;17779;50.942;4.026;2022-12-11T11:35:51;2.80;99.90
31133;DHT22;17779;50.942;4.026;2022-12-11T11:38:18;2.70;99.90
31133;DHT22;17779;50.942;4.026;2022-12-11T11:40:46;2.70;99.90
31133;DHT22;17779;50.942;4.026;2022-12-11T11:49:03;2.60;99.90
31133;DHT22;17779;50.942;4.026;2022-12-11T11:51:33;2.60;99.90
31133;DHT22;17779;50.942;4.026;2022-12-11T11:54:01;2.90;99.90
31133;DHT22;17779;50.942;4.026;2022-12-11T11:56:29;2.90;99.90
31133;DHT22;17779;50.942;4.026;2022-12-11T12:01:25;2.80;99.90
31133;DHT22;17779;50.942;4.026;2022-12-11T12:03:51;2.70;99.90
31133;DHT22;17779;50.942;4.026;2022-12-11T12:11:35;2.50;99.90
31133;DHT22;17779;50.942;4.026;2022-12-11T12:14:15;2.60;99.90
31133;DHT22;17779;50.942;4.026;2022-12-11T12:16:50;2.50;99.90
31133;DHT22;17779;50.942;4.026;2022-12-11T12:22:04;2.60;99.90
31133;DHT22;17779;50.942;4.026;2022-12-11T12:27:27;2.60;99.90
31133;DHT22;17779;50.942;4.026;2022-12-11T12:30:03;2.50;99.90
31133;DHT22;17779;50.942;4.026;2022-12-11T12:32:32;2.50;99.90
31133;DHT22;17779;50.942;4.026;2022-12-11T12:42:56;2.40;99.90
31133;DHT22;17779;50.942;4.026;2022-12-11T12:45:29;2.30;99.90
31133;DHT22;17779;50.942;4.026;2022-12-11T12:47:57;2.40;99.90
31133;DHT22;17779;50.942;4.026;2022-12-11T12:50:24;2.40;99.90
31133;DHT22;17779;50.942;4.026;2022-12-11T12:52:50;2.40;99.90
31133;DHT22;17779;50.942;4.026;2022-12-11T12:55:18;2.50;99.90
31133;DHT22;17779;50.942;4.026;2022-12-11T12:57:49;2.40;99.90
31133;DHT22;17779;50.942;4.026;2022-12-11T13:00:31;2.30;99.90
31133;DHT22;17779;50.942;4.026;2022-12-11T13:03:00;2.40;99.90
31133;DHT22;17779;50.942;4.026;2022-12-11T13:05:31;2.60;99.90
31133;DHT22;17779;50.942;4.026;2022-12-11T13:07:58;2.50;99.90
31133;DHT22;17779;50.942;4.026;2022-12-11T13:10:29;2.50;99.90
31133;DHT22;17779;50.942;4.026;2022-12-11T13:12:55;2.50;99.90
31133;DHT22;17779;50.942;4.026;2022-12-11T13:15:26;2.40;99.90
31133;DHT22;17779;50.942;4.026;2022-12-11T13:17:52;2.50;99.90
31133;DHT22;17779;50.942;4.026;2022-12-11T13:20:19;2.40;99.90
31133;DHT22;17779;50.942;4.026;2022-12-11T13:22:48;2.40;99.90
31133;DHT22;17779;50.942;4.026;2022-12-11T13:27:46;2.40;99.90
31133;DHT22;17779;50.942;4.026;2022-12-11T13:32:40;2.30;99.90
31133;DHT22;17779;50.942;4.026;2022-12-11T13:35:06;2.30;99.90
31133;DHT22;17779;50.942;4.026;2022-12-11T13:37:38;2.40;99.90
31133;DHT22;17779;50.942;4.026;2022-12-11T13:40:14;2.40;99.90
31133;DHT22;17779;50.942;4.026;2022-12-11T13:43:02;2.60;99.90
31133;DHT22;17779;50.942;4.026;2022-12-11T13:45:28;2.60;99.90
31133;DHT22;17779;50.942;4.026;2022-12-11T13:47:57;2.60;99.90
31133;DHT22;17779;50.942;4.026;2022-12-11T13:50:24;2.50;99.90
31133;DHT22;17779;50.942;4.026;2022-12-11T13:52:55;2.60;99.90
31133;DHT22;17779;50.942;4.026;2022-12-11T13:55:26;2.60;99.90
31133;DHT22;17779;50.942;4.026;2022-12-11T13:57:52;2.50;99.90
31133;DHT22;17779;50.942;4.026;2022-12-11T14:00:19;2.60;99.90
31133;DHT22;17779;50.942;4.026;2022-12-11T14:02:45;2.60;99.90
31133;DHT22;17779;50.942;4.026;2022-12-11T14:05:11;2.50;99.90
31133;DHT22;17779;50.942;4.026;2022-12-11T14:07:39;2.60;99.90
31133;DHT22;17779;50.942;4.026;2022-12-11T14:10:19;2.50;99.90
31133;DHT22;17779;50.942;4.026;2022-12-11T14:15:23;2.40;99.90
31133;DHT22;17779;50.942;4.026;2022-12-11T14:17:50;2.50;99.90
31133;DHT22;17779;50.942;4.026;2022-12-11T14:20:18;2.60;99.90
31133;DHT22;17779;50.942;4.026;2022-12-11T14:22:45;2.50;99.90
31133;DHT22;17779;50.942;4.026;2022-12-11T14:25:19;2.50;99.90
31133;DHT22;17779;50.942;4.026;2022-12-11T14:27:47;2.50;99.90
31133;DHT22;17779;50.942;4.026;2022-12-11T14:30:18;2.50;99.90
31133;DHT22;17779;50.942;4.026;2022-12-11T14:32:44;2.60;99.90
31133;DHT22;17779;50.942;4.026;2022-12-11T14:35:43;2.50;99.90
31133;DHT22;17779;50.942;4.026;2022-12-11T14:38:04;2.50;99.90
31133;DHT22;17779;50.942;4.026;2022-12-11T14:40:35;2.70;99.90
31133;DHT22;17779;50.942;4.026;2022-12-11T14:43:02;2.70;99.90
31133;DHT22;17779;50.942;4.026;2022-12-11T14:47:58;2.50;99.90
31133;DHT22;17779;50.942;4.026;2022-12-11T14:50:36;2.40;99.90
31133;DHT22;17779;50.942;4.026;2022-12-11T14:53:06;2.50;99.90
31133;DHT22;17779;50.942;4.026;2022-12-11T14:55:33;2.50;99.90
31133;DHT22;17779;50.942;4.026;2022-12-11T14:58:04;2.50;99.90
31133;DHT22;17779;50.942;4.026;2022-12-11T15:00:32;2.50;99.90
31133;DHT22;17779;50.942;4.026;2022-12-11T15:03:01;2.60;99.90
31133;DHT22;17779;50.942;4.026;2022-12-11T15:05:28;2.60;99.90
31133;DHT22;17779;50.942;4.026;2022-12-11T15:10:32;2.50;99.90
31133;DHT22;17779;50.942;4.026;2022-12-11T15:12:59;2.40;99.90
31133;DHT22;17779;50.942;4.026;2022-12-11T15:15:26;2.30;99.90
31133;DHT22;17779;50.942;4.026;2022-12-11T15:17:52;2.30;99.90
31133;DHT22;17779;50.942;4.026;2022-12-11T15:20:22;2.30;99.90
31133;DHT22;17779;50.942;4.026;2022-12-11T15:22:48;2.30;99.90
31133;DHT22;17779;50.942;4.026;2022-12-11T15:25:18;2.40;99.90
31133;DHT22;17779;50.942;4.026;2022-12-11T15:27:48;2.50;99.90
31133;DHT22;17779;50.942;4.026;2022-12-11T15:32:39;2.50;99.90
31133;DHT22;17779;50.942;4.026;2022-12-11T15:35:22;2.50;99.90
31133;DHT22;17779;50.942;4.026;2022-12-11T15:37:51;2.40;99.90
31133;DHT22;17779;50.942;4.026;2022-12-11T15:40:17;2.40;99.90
31133;DHT22;17779;50.942;4.026;2022-12-11T15:42:43;2.50;99.90
31133;DHT22;17779;50.942;4.026;2022-12-11T15:45:19;2.40;99.90
31133;DHT22;17779;50.942;4.026;2022-12-11T15:47:45;2.60;99.90
31133;DHT22;17779;50.942;4.026;2022-12-11T15:50:14;2.50;99.90
31133;DHT22;17779;50.942;4.026;2022-12-11T15:52:43;2.50;99.90
31133;DHT22;17779;50.942;4.026;2022-12-11T15:55:09;2.40;99.90
31133;DHT22;17779;50.942;4.026;2022-12-11T15:57:35;2.50;99.90
31133;DHT22;17779;50.942;4.026;2022-12-11T16:00:01;2.60;99.90
31133;DHT22;17779;50.942;4.026;2022-12-11T16:02:26;2.70;99.90
31133;DHT22;17779;50.942;4.026;2022-12-11T16:04:52;2.60;99.90
31133;DHT22;17779;50.942;4.026;2022-12-11T16:07:22;2.50;99.90
31133;DHT22;17779;50.942;4.026;2022-12-11T16:09:48;2.50;99.90
31133;DHT22;17779;50.942;4.026;2022-12-11T16:12:14;2.40;99.90
31133;DHT22;17779;50.942;4.026;2022-12-11T16:14:41;2.30;99.90
31133;DHT22;17779;50.942;4.026;2022-12-11T16:17:07;2.30;99.90
31133;DHT22;17779;50.942;4.026;2022-12-11T16:19:33;2.40;99.90
31133;DHT22;17779;50.942;4.026;2022-12-11T16:21:59;2.40;99.90
31133;DHT22;17779;50.942;4.026;2022-12-11T16:24:25;2.40;99.90
31133;DHT22;17779;50.942;4.026;2022-12-11T16:26:51;2.60;99.90
31133;DHT22;17779;50.942;4.026;2022-12-11T16:29:16;2.40;99.90
31133;DHT22;17779;50.942;4.026;2022-12-11T16:31:42;2.30;99.90
31133;DHT22;17779;50.942;4.026;2022-12-11T16:34:08;2.10;99.90
31133;DHT22;17779;50.942;4.026;2022-12-11T16:36:33;2.10;99.90
31133;DHT22;17779;50.942;4.026;2022-12-11T16:38:59;2.10;99.90
31133;DHT22;17779;50.942;4.026;2022-12-11T16:41:25;2.20;99.90
31133;DHT22;17779;50.942;4.026;2022-12-11T16:43:50;2.20;99.90
31133;DHT22;17779;50.942;4.026;2022-12-11T16:46:18;2.30;99.90
31133;DHT22;17779;50.942;4.026;2022-12-11T16:48:44;2.20;99.90
31133;DHT22;17779;50.942;4.026;2022-12-11T16:51:10;2.20;99.90